Home > Products > Valid Products > TAF

000
FTUS43 KOAX 301120
TAFOFK
TAF
KOFK 301120Z 3012/3112 30011KT P6SM SKC
     FM301500 33020G28KT P6SM SCT050
     FM310000 34014G22KT P6SM BKN012
     FM311000 35010G18KT P6SM SCT020=



000
FTUS43 KOAX 301120
TAFOMA
TAF
KOMA 301120Z 3012/3112 30008KT P6SM FEW100
     FM301700 33018G28KT P6SM SCT050
     FM310100 34014G22KT P6SM BKN020
     FM311000 35012G20KT P6SM SCT020=



000
FTUS43 KOAX 301120
TAFLNK
TAF
KLNK 301120Z 3012/3112 32010KT P6SM SKC
     FM301600 33020G28KT P6SM SKC
     FM310100 35013G20KT P6SM SCT020=



000
FTUS43 KOAX 300733 AAA
TAFLNK
TAF AMD
KLNK 300733Z 3008/3106 VRB04KT P6SM VCTS BKN100CB
     FM300900 32007KT P6SM SCT100
     FM301700 33020G28KT P6SM SCT250
     FM310100 35013KT P6SM SKC=



000
FTUS43 KOAX 300520
TAFOFK
TAF
KOFK 300520Z 3006/3106 VRB04KT P6SM BKN100
     FM300900 32008KT P6SM SCT100
     FM301500 33016G28KT P6SM SCT250
     FM310100 35011KT P6SM SKC=



000
FTUS43 KOAX 300520
TAFOMA
TAF
KOMA 300520Z 3006/3106 VRB04KT P6SM BKN100
     FM301100 32007KT P6SM SCT100
     FM301700 33020G28KT P6SM SCT250
     FM310100 35013KT P6SM SKC=



000
FTUS43 KOAX 300520
TAFLNK
TAF
KLNK 300520Z 3006/3106 VRB04KT P6SM BKN100
     FM301100 32007KT P6SM SCT100
     FM301700 33020G28KT P6SM SCT250
     FM310100 35013KT P6SM SKC=



000
FTUS43 KOAX 292334
TAFLNK
TAF
KLNK 292334Z 3000/3024 17006KT P6SM SKC
     FM300300 15004KT P6SM BKN150 WS010/22027KT
     FM300900 31007KT P6SM SKC
     FM301700 33020G28KT P6SM SCT250=



000
FTUS43 KOAX 292334
TAFOMA
TAF
KOMA 292334Z 3000/3024 17006KT P6SM SKC
     FM300300 15004KT P6SM BKN150 WS010/22031KT
     FM301100 31007KT P6SM SKC
     FM301700 33020G28KT P6SM SCT250=



000
FTUS43 KOAX 292334
TAFOFK
TAF
KOFK 292334Z 3000/3024 16008KT P6SM FEW150
     FM300300 17004KT P6SM BKN100
     FM301100 31008KT P6SM SCT250
     FM301500 33016G28KT P6SM SCT250=



000
FTUS43 KOAX 291742
TAFOFK
TAF
KOFK 291742Z 2918/3018 19010KT P6SM SKC
     FM300100 17006KT P6SM BKN250
     FM300900 33010KT P6SM BKN100
     FM301400 32012KT P6SM SCT250=



000
FTUS43 KOAX 291742
TAFOMA
TAF
KOMA 291742Z 2918/3018 11004KT P6SM SKC
     FM292100 15006KT P6SM SCT250
     FM300300 15003KT P6SM BKN250
     FM301200 VRB03KT P6SM SKC=



000
FTUS43 KOAX 291742
TAFLNK
TAF
KLNK 291742Z 2918/3018 16006KT P6SM SKC
     FM300200 18004KT P6SM BKN250
     FM301200 33006KT P6SM SKC=



000
FTUS43 KOAX 291120
TAFOMA
TAF
KOMA 291120Z 2912/3012 33006KT P6SM SKC
     FM292100 16006KT P6SM SCT100=



000
FTUS43 KOAX 291120
TAFOFK
TAF
KOFK 291120Z 2912/3012 26006KT P6SM SKC
     FM291700 18010KT P6SM SKC
     FM300900 33010KT P6SM BKN120=



000
FTUS43 KOAX 291120
TAFLNK
TAF
KLNK 291120Z 2912/3012 VRB03KT P6SM SKC
     FM291700 16008KT P6SM SKC=



000
FTUS43 KOAX 290520
TAFLNK
TAF
KLNK 290520Z 2906/3006 32004KT P6SM SKC
     FM291700 16008KT P6SM SKC=



000
FTUS43 KOAX 290520
TAFOMA
TAF
KOMA 290520Z 2906/3006 31005KT P6SM SKC
     FM292000 18006KT P6SM SKC=



000
FTUS43 KOAX 290520
TAFOFK
TAF
KOFK 290520Z 2906/3006 28004KT P6SM SKC
     FM291700 18010KT P6SM SKC=



000
FTUS43 KOAX 282320
TAFOFK
TAF
KOFK 282320Z 2900/2924 30008KT P6SM SKC
     FM291700 18010KT P6SM SKC=



000
FTUS43 KOAX 282320
TAFOMA
TAF
KOMA 282320Z 2900/2924 31008KT P6SM SKC
     FM292000 18006KT P6SM SKC=



000
FTUS43 KOAX 282320
TAFLNK
TAF
KLNK 282320Z 2900/2924 30006KT P6SM SKC
     FM291700 16006KT P6SM SKC=



000
FTUS43 KOAX 281720
TAFOFK
TAF
KOFK 281720Z 2818/2918 30020G28KT P6SM SCT040
     FM290000 28006KT P6SM SKC=



000
FTUS43 KOAX 281720
TAFLNK
TAF
KLNK 281720Z 2818/2918 30017G25KT P6SM FEW040
     FM282300 31005KT P6SM SKC=



000
FTUS43 KOAX 281720
TAFOMA
TAF
KOMA 281720Z 2818/2918 30015G25KT P6SM FEW040
     FM290000 30006KT P6SM SKC=



000
FTUS43 KOAX 281120
TAFOMA
TAF
KOMA 281120Z 2812/2912 30015G25KT P6SM FEW040 SCT090
      TEMPO 2812/2815 29010KT P6SM BKN090
     FM290000 30006KT P6SM SCT250=



000
FTUS43 KOAX 281120
TAFLNK
TAF
KLNK 281120Z 2812/2912 29009KT P6SM SCT100
      TEMPO 2814/2817 30013G22KT
     FM281700 30017G25KT P6SM FEW040
     FM282300 31005KT P6SM SCT250=



000
FTUS43 KOAX 281120
TAFOFK
TAF
KOFK 281120Z 2812/2912 30015G25KT P6SM SCT090
      TEMPO 2812/2814 28012G20KT BKN090
     FM281700 30020G28KT P6SM SCT040
     FM290000 28006KT P6SM FEW250=



000
FTUS43 KOAX 281003 AAA
TAFOFK
TAF AMD
KOFK 281003Z 2810/2906 29015G23KT P6SM SCT090
      TEMPO 2811/2814 27010KT P6SM BKN090
     FM281700 30020G28KT P6SM SCT040
     FM282300 31013KT P6SM FEW250=



000
FTUS43 KOAX 280520
TAFOFK
TAF
KOFK 280520Z 2806/2906 27008KT P6SM SCT250
     FM281200 27010KT P6SM FEW250
     FM281400 29015G25KT P6SM SCT090
     FM281700 30020G28KT P6SM SCT040
     FM282300 31013KT P6SM FEW250=



000
FTUS43 KOAX 280520
TAFLNK
TAF
KLNK 280520Z 2806/2906 28007KT P6SM SCT050
     FM281500 30014KT P6SM SCT090
     FM281700 30017G25KT P6SM FEW040
     FM282300 31010KT P6SM SCT250=



000
FTUS43 KOAX 280520
TAFOMA
TAF
KOMA 280520Z 2806/2906 30009KT P6SM FEW090 BKN250
     FM281000 28009KT P6SM SCT250
     FM281500 31015G24KT P6SM SCT090
     FM281800 30017G26KT P6SM FEW040
     FM282300 31012KT P6SM SCT250=



000
FTUS43 KOAX 280208 AAA
TAFOFK
TAF AMD
KOFK 280208Z 2802/2824 27008KT P6SM SCT080 BKN250
     FM280700 27008KT P6SM FEW250
     FM281400 29015G25KT P6SM SCT250
     FM281700 30020G28KT P6SM SCT040
     FM282300 31013KT P6SM SKC=



000
FTUS43 KOAX 272320
TAFOFK
TAF
KOFK 272320Z 2800/2824 32012KT P6SM BKN100
      TEMPO 2800/2802 34015G25KT
     FM280300 28008KT P6SM SCT050 BKN200
     FM281400 30015G25KT P6SM SCT250
     FM281700 30020G28KT P6SM SCT040
     FM282300 31013KT P6SM SKC=



000
FTUS43 KOAX 272320
TAFLNK
TAF
KLNK 272320Z 2800/2824 33013KT P6SM BKN100
      TEMPO 2800/2802 33015G25KT
     FM280300 33009KT P6SM BKN100
     FM280600 28007KT P6SM SCT050
     FM281500 30015G24KT P6SM SCT090
     FM281900 30017G25KT P6SM SCT250=



000
FTUS43 KOAX 272320
TAFOMA
TAF
KOMA 272320Z 2800/2824 33013KT P6SM SCT050 BKN100
      TEMPO 2800/2802 33015G25KT
     FM280300 31011KT P6SM BKN100
     FM280600 30009KT P6SM SCT250
     FM281500 31015G24KT P6SM SCT090
     FM281900 30017G26KT P6SM FEW040=



000
FTUS43 KOAX 272214 AAA
TAFOFK
TAF AMD
KOFK 272214Z 2722/2818 33020G27KT P6SM BKN100
     FM280000 32013KT P6SM BKN100
     FM280300 28008KT P6SM SCT050 BKN200
     FM281400 30015G25KT P6SM SCT250
     FM281700 30020G28KT P6SM SCT035=



000
FTUS43 KOAX 272212 AAA
TAFLNK
TAF AMD
KLNK 272212Z 2722/2818 33017G27KT P6SM BKN100
      TEMPO 2722/2724 33020G33KT
     FM280100 33013KT P6SM BKN100
     FM280500 29007KT P6SM SCT050
     FM281500 30016G25KT P6SM SCT150=



000
FTUS43 KOAX 272145 AAC
TAFOMA
TAF AMD
KOMA 272145Z 2722/2818 33013G22KT P6SM SCT050 BKN120
      TEMPO 2722/2724 33017G28KT
     FM280200 32012KT P6SM BKN100
     FM280700 30008KT P6SM SCT250
     FM281500 30015G24KT P6SM SCT090=



000
FTUS43 KOAX 272105 AAB
TAFOMA
TAF AMD
KOMA 272105Z 2721/2818 34013G22KT P6SM SCT050 BKN120
     FM280200 32012KT P6SM BKN100
     FM280700 30008KT P6SM SCT250
     FM281500 30015G24KT P6SM SCT090=



000
FTUS43 KOAX 271947 AAA
TAFOMA
TAF AMD
KOMA 271947Z 2720/2818 34018G28KT P6SM SCT100 BKN250
     FM280200 31010KT P6SM BKN090
     FM281500 30015G24KT P6SM SCT100=



000
FTUS43 KOAX 271729
TAFOMA
TAF
KOMA 271729Z 2718/2818 34012G20KT P6SM SCT100 BKN250
     FM272300 32010KT P6SM BKN090
     FM280000 31010KT P6SM BKN150
     FM281500 30015G24KT P6SM SCT100=



000
FTUS43 KOAX 271729
TAFLNK
TAF
KLNK 271729Z 2718/2818 35018G28KT P6SM BKN250
     FM272300 33010KT P6SM BKN090
     FM280400 29007KT P6SM SCT150
     FM281500 30016G25KT P6SM SCT150=



000
FTUS43 KOAX 271729
TAFOFK
TAF
KOFK 271729Z 2718/2818 33020G27KT P6SM BKN100
     FM280000 32011KT P6SM BKN100
     FM280300 28008KT P6SM SCT100
     FM281400 30015G27KT P6SM SCT150=



    US Dept of Commerce
    National Oceanic and Atmospheric Administration
    National Weather Service
    1325 East West Highway
    Silver Spring, MD 20910
    Page Author: NWS Internet Services Team
Disclaimer
Information Quality
Credits
Glossary
Privacy Policy
Freedom of Information Act (FOIA)
About Us
Career Opportunities